Pagina principale
METAR-TAF:

METAR-TAF

Aeroporti :

Fritzlar, Germania

latitudine: 51-07N, longitudine: 009-17E, altezza: 172 m

Osservazione

Il bollettino è stato emesso 23 minuti fa, alle 00:20 UTC
Vento 2 kt da nord/nord-est
Temperature 12°C
Umidità 58%
Pressione 1023 hPa
Visibilità 10 km o più
Poco nuvoloso ad un'altezza di 7000 ft

METAR: ETHF 310020Z 02002KT 9999 FEW070 12/04 Q1023 BLU+

Ora: 02:43 (00:43 UTC)


TAF: mancante

Osservazioni e previsioni meteorologiche di più di 4000 aeroporti (messaggi METAR e TAF).

Le stazioni disponibili sono rappresentate dai dischi gialli e rossi sulla carta.

Puntare il mouse per vedere il nome della stazione.

Clicca sopra per visualizzare le osservazioni e previsioni meteorologiche.

Per cambiare la mappa : fare clic sui pulsanti verdi con una croce nera per ingrandire, il pulsante verde con un trattino per diminuire, o sulla freccia verde per le mappe adiacenti.


METAR-TAF: